Bookmark and Share
Track history (hours):
 

Discovery

Operator: V Ships Leisure SAM

Last reported at 2014-Apr-15 15:33 UTC. Time now 2014-Apr-16 13:43 UTC.
Position N 36°59' E 002°30'.

Length 177 m; draft 8.9 m.

Type: Cargo ship. MMSI: 353389000.

NotesDate/timePositionNaut miles runAvg speedWind from/ knotsBaromVisibWave heightAir tempDewpointWater temp
2014-Apr-15 15:33N 36°59' E 002°30'5410.7
2014-Apr-15 10:33N 37°07' E 003°37'1513.9
2014-Apr-15 09:30N 37°09' E 003°55'  
2014-Apr-12 03:10N 37°31' E 024°22'14713.8
2014-Apr-11 16:28N 39°43' E 025°45'44510.3
2014-Apr-09 21:18N 46°02' E 031°04'911.2
2014-Apr-09 20:32N 46°10' E 031°01'1110.7
2014-Apr-09 19:33N 46°20' E 030°55'1111.1
2014-Apr-09 18:33N 46°31' E 030°55'9 8.7
2014-Apr-09 17:33N 46°35' E 031°07'1211.8
2014-Apr-09 16:33N 46°35' E 031°24'9 8.8
2014-Apr-09 15:32N 46°35' E 031°37'9 9.5
2014-Apr-09 14:33N 46°36' E 031°50'8 8.4
2014-Apr-09 13:33N 46°44' E 031°56'8 7.7
2014-Apr-09 12:34N 46°51' E 031°58'5 5.1
2014-Apr-09 11:34N 46°56' E 031°59'0 0.1
2014-Apr-09 10:31N 46°57' E 031°59'0 0.0
2014-Apr-09 09:31N 46°57' E 031°59'0 0.0
2014-Apr-09 08:31N 46°57' E 031°59'0 0.0
2014-Apr-09 07:31N 46°57' E 031°59'0 0.0
2014-Apr-09 06:31N 46°57' E 031°59'0 0.0
2014-Apr-09 05:31N 46°57' E 031°59'0 0.0
2014-Apr-09 04:31N 46°57' E 031°59'0 0.0
2014-Apr-09 03:31N 46°57' E 031°59'0 0.0
2014-Apr-09 02:31N 46°57' E 031°59'0 0.0
2014-Apr-09 01:31N 46°57' E 031°59'0 0.0
2014-Apr-09 00:31N 46°57' E 031°59'0 0.0
2014-Apr-08 23:31N 46°57' E 031°59'0 0.0
2014-Apr-08 22:31N 46°57' E 031°59'0 0.0
2014-Apr-08 21:31N 46°57' E 031°59'0 0.0
2014-Apr-08 20:31N 46°57' E 031°59'0 0.0
2014-Apr-08 19:31N 46°57' E 031°59'0 0.0
2014-Apr-08 18:31N 46°57' E 031°59'0 0.0
2014-Apr-08 17:31N 46°57' E 031°59'0 0.0
2014-Apr-08 16:31N 46°57' E 031°59'0 0.0
2014-Apr-08 15:28N 46°57' E 031°59'0 0.0
2014-Apr-08 14:31N 46°57' E 031°59'0 0.0
2014-Apr-08 13:31N 46°57' E 031°59'0 0.0
2014-Apr-08 12:31N 46°57' E 031°59'0 0.0
2014-Apr-08 11:31N 46°57' E 031°59'0 0.0
2014-Apr-08 10:31N 46°57' E 031°59'0 0.0
2014-Apr-08 09:31N 46°57' E 031°59'0 0.0
2014-Apr-08 08:30N 46°57' E 031°59'0 0.0
2014-Apr-08 07:34N 46°57' E 031°59'0 0.0
2014-Apr-08 06:34N 46°57' E 031°59'0 0.0
2014-Apr-08 05:33N 46°57' E 031°59'0 0.0
2014-Apr-08 04:34N 46°57' E 031°59'0 0.0
2014-Apr-08 03:33N 46°57' E 031°59'0 0.0
2014-Apr-08 02:33N 46°57' E 031°59'0 0.0
2014-Apr-08 01:33N 46°57' E 031°59'0 0.0
2014-Apr-08 00:33N 46°57' E 031°59'0 0.0
2014-Apr-07 23:33N 46°57' E 031°59'0 0.0
2014-Apr-07 22:33N 46°57' E 031°59'0 0.0
2014-Apr-07 21:33N 46°57' E 031°59'0 0.0
2014-Apr-07 20:33N 46°57' E 031°59'0 0.0
2014-Apr-07 19:33N 46°57' E 031°59'0 0.0
2014-Apr-07 17:33N 46°57' E 031°59'0 0.0
2014-Apr-07 16:33N 46°57' E 031°59'0 0.0
2014-Apr-07 15:33N 46°57' E 031°59'0 0.0
2014-Apr-07 14:33N 46°57' E 031°59'0 0.0
2014-Apr-07 13:33N 46°57' E 031°59'0 0.0
2014-Apr-07 12:33N 46°57' E 031°59'0 0.0
2014-Apr-07 11:33N 46°57' E 031°59'0 0.0
2014-Apr-07 10:33N 46°57' E 031°59'0 0.0
2014-Apr-07 09:30N 46°57' E 031°59'0 0.0
2014-Apr-07 08:33N 46°57' E 031°59'0 0.0
2014-Apr-07 07:33N 46°57' E 031°59'1 1.3
2014-Apr-07 06:33N 46°56' E 032°01'9 9.3
2014-Apr-07 05:33N 46°48' E 031°53'10 9.9
2014-Apr-07 04:33N 46°38' E 031°55'1110.5
2014-Apr-07 03:33N 46°36' E 031°40'10 9.7
2014-Apr-07 02:33N 46°35' E 031°26'1210.5
2014-Apr-07 01:25N 46°35' E 031°08'8 9.1
2014-Apr-07 00:33N 46°33' E 030°58'297 9.8
2014-Apr-05 18:12N 41°44' E 029°23'913.7
2014-Apr-05 17:31N 41°35' E 029°20'1313.8
2014-Apr-05 16:33N 41°22' E 029°15'  

Dump ship's entire track history

sailing weather and tide predictions

Discovery — 3FII9 — position and weather